createdAt,value
2022-09-26T00:01:38.697Z,72.45
2022-09-26T00:04:10.217Z,72.37
2022-09-26T00:06:38.103Z,72.54
2022-09-26T00:09:05.803Z,72.42
2022-09-26T00:11:34.741Z,72.54
2022-09-26T00:14:08.194Z,72.63
2022-09-26T00:16:36.197Z,72.51
2022-09-26T00:19:04.986Z,72.42
2022-09-26T00:21:34.360Z,72.44
2022-09-26T00:24:03.140Z,72.37
2022-09-26T00:26:33.760Z,72.30
2022-09-26T00:29:07.140Z,72.25
2022-09-26T00:31:40.851Z,72.14
2022-09-26T00:34:15.316Z,72.10
2022-09-26T00:36:43.556Z,72.00
2022-09-26T00:39:15.461Z,72.06
2022-09-26T00:41:44.872Z,72.03
2022-09-26T00:44:41.815Z,72.00
2022-09-26T00:47:28.069Z,71.90
2022-09-26T00:50:07.894Z,71.81
2022-09-26T00:52:43.904Z,71.89
2022-09-26T00:55:15.906Z,72.01
2022-09-26T00:58:06.745Z,71.99
2022-09-26T01:00:34.469Z,72.20
2022-09-26T01:03:03.791Z,72.36
2022-09-26T01:05:32.767Z,72.44
2022-09-26T01:08:02.675Z,72.73
2022-09-26T01:10:30.470Z,72.82
2022-09-26T01:13:00.241Z,73.03
2022-09-26T01:15:29.087Z,73.27
2022-09-26T01:17:57.351Z,73.37
2022-09-26T01:20:56.006Z,73.69
2022-09-26T01:23:45.383Z,73.59
2022-09-26T01:26:34.702Z,73.69
2022-09-26T01:29:31.435Z,73.54
2022-09-26T01:32:48.468Z,73.56
2022-09-26T01:35:28.344Z,73.60
2022-09-26T01:38:35.185Z,73.89
2022-09-26T01:41:24.713Z,74.52
2022-09-26T01:44:20.729Z,75.05
2022-09-26T01:47:39.510Z,75.48
2022-09-26T01:50:45.487Z,75.58
2022-09-26T01:53:25.944Z,75.84
2022-09-26T01:56:09.888Z,76.42
2022-09-26T01:58:53.455Z,77.05
2022-09-26T02:01:25.474Z,77.59
2022-09-26T02:04:01.792Z,77.97
2022-09-26T02:06:44.398Z,78.57
2022-09-26T02:09:33.847Z,78.84
2022-09-26T02:12:09.878Z,79.05
2022-09-26T02:14:41.918Z,79.08
2022-09-26T02:17:16.529Z,79.45
2022-09-26T02:19:59.345Z,79.39
2022-09-26T02:22:33.785Z,79.49
2022-09-26T02:25:03.483Z,79.52
2022-09-26T02:27:31.519Z,79.67
2022-09-26T02:29:59.655Z,79.64
2022-09-26T02:32:31.897Z,79.73
2022-09-26T02:35:22.222Z,79.81
2022-09-26T02:37:50.320Z,79.93
2022-09-26T02:40:20.381Z,80.24
2022-09-26T02:43:01.886Z,80.11
2022-09-26T02:46:00.203Z,80.19
2022-09-26T02:48:48.155Z,80.18
2022-09-26T02:51:42.170Z,80.00
2022-09-26T02:54:25.602Z,80.40
2022-09-26T02:57:40.029Z,80.82
2022-09-26T03:00:16.206Z,81.15
2022-09-26T03:03:01.233Z,81.78
2022-09-26T03:05:34.998Z,82.11
2022-09-26T03:08:25.150Z,82.59
2022-09-26T03:10:59.732Z,83.32
2022-09-26T03:13:29.800Z,83.45
2022-09-26T03:15:59.573Z,83.80
2022-09-26T03:18:38.495Z,83.88
2022-09-26T03:21:07.541Z,83.87
2022-09-26T03:23:35.425Z,84.26
2022-09-26T03:26:13.951Z,84.54
2022-09-26T03:28:52.678Z,84.79
2022-09-26T03:31:25.185Z,85.05
2022-09-26T03:34:00.030Z,85.16
2022-09-26T03:36:28.629Z,85.40
2022-09-26T03:38:56.618Z,85.75
2022-09-26T03:41:44.943Z,85.63
2022-09-26T03:44:25.411Z,85.73
2022-09-26T03:47:05.623Z,85.75
2022-09-26T03:49:38.843Z,85.80
2022-09-26T03:52:10.634Z,86.17
2022-09-26T03:54:38.510Z,85.99
2022-09-26T03:57:06.429Z,86.00
2022-09-26T03:59:36.473Z,86.10
2022-09-26T04:02:05.244Z,86.15
2022-09-26T04:04:36.753Z,86.41
2022-09-26T04:07:04.523Z,86.61
2022-09-26T04:09:32.480Z,86.68
2022-09-26T04:12:01.257Z,86.85
2022-09-26T04:14:29.031Z,86.72
2022-09-26T04:16:59.204Z,86.80
2022-09-26T04:19:34.065Z,86.86
2022-09-26T04:22:02.005Z,87.04
2022-09-26T04:24:33.989Z,87.14
2022-09-26T04:27:01.896Z,87.26
2022-09-26T04:29:30.223Z,87.12
2022-09-26T04:32:13.016Z,87.11
2022-09-26T04:35:01.009Z,87.25
2022-09-26T04:37:37.004Z,87.34
2022-09-26T04:40:05.201Z,87.35
2022-09-26T04:42:36.880Z,87.59
2022-09-26T04:45:05.542Z,87.63
2022-09-26T04:47:33.478Z,87.79
2022-09-26T04:50:30.236Z,87.69
2022-09-26T04:53:09.007Z,87.80
2022-09-26T04:55:56.942Z,87.83
2022-09-26T04:58:24.919Z,87.81
2022-09-26T05:00:53.093Z,87.61
2022-09-26T05:03:29.565Z,87.79
2022-09-26T05:05:58.051Z,87.87
2022-09-26T05:08:26.935Z,88.01
2022-09-26T05:10:57.387Z,88.12
2022-09-26T05:13:26.755Z,88.04
2022-09-26T05:15:55.810Z,88.01
2022-09-26T05:18:24.792Z,88.08
2022-09-26T05:20:53.963Z,88.05
2022-09-26T05:23:45.021Z,87.91
2022-09-26T05:26:26.861Z,88.03
2022-09-26T05:29:08.333Z,88.00
2022-09-26T05:31:57.219Z,88.09
2022-09-26T05:34:26.164Z,88.27
2022-09-26T05:36:54.131Z,88.38
2022-09-26T05:39:42.666Z,88.36
2022-09-26T05:42:11.180Z,88.44
2022-09-26T05:44:39.743Z,88.32
2022-09-26T05:47:08.875Z,88.20
2022-09-26T05:49:37.107Z,88.10
2022-09-26T05:52:05.172Z,88.07
2022-09-26T05:54:33.063Z,87.85
2022-09-26T05:57:01.631Z,87.97
2022-09-26T05:59:46.878Z,88.18
2022-09-26T06:02:26.827Z,88.18
2022-09-26T06:05:15.122Z,88.32
2022-09-26T06:08:01.778Z,88.31
2022-09-26T06:10:39.642Z,88.38
2022-09-26T06:13:07.869Z,88.52
2022-09-26T06:15:54.521Z,88.74
2022-09-26T06:18:22.263Z,88.81
2022-09-26T06:20:50.762Z,88.62
2022-09-26T06:23:18.502Z,88.71
2022-09-26T06:25:47.222Z,88.42
2022-09-26T06:28:14.975Z,88.17
2022-09-26T06:30:42.616Z,87.89
2022-09-26T06:33:13.322Z,87.53
2022-09-26T06:36:04.177Z,86.76
2022-09-26T06:38:36.558Z,86.25
2022-09-26T06:41:07.471Z,86.15
2022-09-26T06:43:35.639Z,86.11
2022-09-26T06:46:32.688Z,85.86
2022-09-26T06:49:13.240Z,85.70
2022-09-26T06:51:43.754Z,85.55
2022-09-26T06:54:11.854Z,84.94
2022-09-26T06:56:39.735Z,84.89
2022-09-26T06:59:08.488Z,84.90
2022-09-26T07:01:41.437Z,84.94
2022-09-26T07:04:35.877Z,84.42
2022-09-26T07:07:30.270Z,84.31
2022-09-26T07:09:58.338Z,84.31
2022-09-26T07:12:40.811Z,84.02
2022-09-26T07:15:09.622Z,83.56
2022-09-26T07:17:37.329Z,82.94
2022-09-26T07:20:36.879Z,83.04
2022-09-26T07:23:10.796Z,82.64
2022-09-26T07:25:39.717Z,82.74
2022-09-26T07:28:11.162Z,82.42
2022-09-26T07:30:47.788Z,82.10
2022-09-26T07:33:47.825Z,82.14
2022-09-26T07:36:16.160Z,82.32
2022-09-26T07:38:48.556Z,82.23
2022-09-26T07:41:17.995Z,82.32
2022-09-26T07:44:53.023Z,82.47
2022-09-26T07:46:53.192Z,82.22
2022-09-26T07:49:39.566Z,81.97
2022-09-26T07:52:15.223Z,81.58
2022-09-26T07:54:51.320Z,81.35
2022-09-26T07:57:33.009Z,81.44
2022-09-26T08:00:14.575Z,81.16
2022-09-26T08:02:46.980Z,80.45
2022-09-26T08:05:20.113Z,80.41
2022-09-26T08:07:49.350Z,79.81
2022-09-26T08:10:37.337Z,79.61
2022-09-26T08:13:42.195Z,78.91
2022-09-26T08:16:23.435Z,78.94
2022-09-26T08:18:55.008Z,78.44
2022-09-26T08:21:25.188Z,78.32
2022-09-26T08:23:56.521Z,77.94
2022-09-26T08:26:44.557Z,77.44
2022-09-26T08:29:23.522Z,77.62
2022-09-26T08:31:54.723Z,76.67
2022-09-26T08:34:25.409Z,76.22
2022-09-26T08:37:14.287Z,76.74
2022-09-26T08:40:02.371Z,76.56
2022-09-26T08:43:15.172Z,76.03
2022-09-26T08:46:38.045Z,75.64
2022-09-26T08:50:11.711Z,75.40
2022-09-26T08:52:56.905Z,75.59
2022-09-26T08:55:32.810Z,75.45
2022-09-26T08:58:16.026Z,75.37
2022-09-26T09:00:47.515Z,74.08
2022-09-26T09:03:36.753Z,74.78
2022-09-26T09:06:12.981Z,74.75
2022-09-26T09:08:48.938Z,73.99
2022-09-26T09:12:10.378Z,73.04
2022-09-26T09:15:34.088Z,71.90
2022-09-26T09:18:36.563Z,72.55
2022-09-26T09:22:03.401Z,72.93
2022-09-26T09:25:01.268Z,71.93
2022-09-26T09:28:01.286Z,72.41
2022-09-26T09:30:47.560Z,71.00
2022-09-26T09:33:49.326Z,70.50
2022-09-26T09:36:59.485Z,70.21
2022-09-26T09:39:39.943Z,70.06
2022-09-26T09:42:55.186Z,70.70
2022-09-26T09:45:48.138Z,69.88
2022-09-26T09:48:16.255Z,69.14
2022-09-26T09:51:10.494Z,68.67
2022-09-26T09:54:14.544Z,67.70
2022-09-26T09:57:15.268Z,68.29
2022-09-26T10:00:25.194Z,68.48
2022-09-26T10:03:11.394Z,66.29
2022-09-26T10:05:45.189Z,66.34
2022-09-26T10:08:24.891Z,65.91
2022-09-26T10:11:19.389Z,66.47
2022-09-26T10:14:12.328Z,66.37
2022-09-26T10:17:20.675Z,66.00
2022-09-26T10:20:59.703Z,66.92
2022-09-26T10:23:44.112Z,65.76
2022-09-26T10:26:29.031Z,65.55
2022-09-26T10:29:02.581Z,65.19
2022-09-26T10:31:41.347Z,66.10
2022-09-26T10:34:31.069Z,64.77
2022-09-26T10:37:22.898Z,64.50
2022-09-26T10:40:14.283Z,64.33
2022-09-26T10:42:47.202Z,64.86
2022-09-26T10:45:20.407Z,64.92
2022-09-26T10:48:55.327Z,64.56
2022-09-26T10:52:01.362Z,64.00
2022-09-26T10:55:05.061Z,64.08
2022-09-26T10:57:57.476Z,64.79
2022-09-26T11:00:43.847Z,66.14
2022-09-26T11:03:21.824Z,66.10
2022-09-26T11:06:35.791Z,65.56
2022-09-26T11:09:20.692Z,63.73
2022-09-26T11:12:39.908Z,62.72
2022-09-26T11:15:13.885Z,63.21
2022-09-26T11:17:51.741Z,63.12
2022-09-26T11:20:50.613Z,63.04
2022-09-26T11:23:27.759Z,64.46
2022-09-26T11:26:17.033Z,65.19
2022-09-26T11:29:05.040Z,65.81
2022-09-26T11:31:44.078Z,66.38
2022-09-26T11:34:31.443Z,66.04
2022-09-26T11:37:43.242Z,65.85
2022-09-26T11:40:46.053Z,65.15
2022-09-26T11:43:28.994Z,65.44
2022-09-26T11:46:21.369Z,65.58
2022-09-26T11:50:02.931Z,65.52
2022-09-26T11:52:57.947Z,65.35
2022-09-26T11:55:37.217Z,65.92
2022-09-26T11:58:26.678Z,65.26
2022-09-26T12:01:07.537Z,65.85
2022-09-26T12:04:01.503Z,65.88
2022-09-26T12:06:41.538Z,65.12
2022-09-26T12:09:20.899Z,64.81
2022-09-26T12:12:29.539Z,65.05
2022-09-26T12:15:45.077Z,64.16
2022-09-26T12:18:39.402Z,62.56
2022-09-26T12:22:09.168Z,61.85
2022-09-26T12:24:58.558Z,61.73
2022-09-26T12:28:05.727Z,61.56
2022-09-26T12:30:49.888Z,62.11
2022-09-26T12:33:39.681Z,61.58
2022-09-26T12:36:28.681Z,60.27
2022-09-26T12:39:51.742Z,60.83
2022-09-26T12:42:35.839Z,60.78
2022-09-26T12:45:24.350Z,61.66
2022-09-26T12:48:20.271Z,60.74
2022-09-26T12:51:42.640Z,60.84
2022-09-26T12:54:33.036Z,62.22
2022-09-26T12:57:39.187Z,62.83
2022-09-26T13:00:23.165Z,63.62
2022-09-26T13:03:07.973Z,62.34
2022-09-26T13:05:58.025Z,61.75
2022-09-26T13:08:47.338Z,61.49
2022-09-26T13:11:44.301Z,61.24
2022-09-26T13:14:49.148Z,60.04
2022-09-26T13:17:24.553Z,60.07
2022-09-26T13:20:03.994Z,60.48
2022-09-26T13:22:47.940Z,61.09
2022-09-26T13:25:20.381Z,61.59
2022-09-26T13:28:06.332Z,60.59
2022-09-26T13:30:46.728Z,61.07
2022-09-26T13:33:27.558Z,61.28
2022-09-26T13:36:01.357Z,61.86
2022-09-26T13:39:09.126Z,62.20
2022-09-26T13:41:46.674Z,62.93
2022-09-26T13:44:43.742Z,62.69
2022-09-26T13:47:50.640Z,62.70
2022-09-26T13:50:32.573Z,64.60
2022-09-26T13:53:13.033Z,67.85
2022-09-26T13:55:43.250Z,69.43
2022-09-26T13:58:26.299Z,70.03
2022-09-26T14:00:54.523Z,69.44
2022-09-26T14:03:23.020Z,70.05
2022-09-26T14:06:01.858Z,69.76
2022-09-26T14:08:54.114Z,69.94
2022-09-26T14:11:27.689Z,70.72
2022-09-26T14:14:21.414Z,70.15
2022-09-26T14:17:01.559Z,70.36
2022-09-26T14:19:49.655Z,70.01
2022-09-26T14:22:23.058Z,69.75
2022-09-26T14:24:57.059Z,68.96
2022-09-26T14:27:39.370Z,68.93
2022-09-26T14:30:27.887Z,68.51
2022-09-26T14:33:04.596Z,68.55
2022-09-26T14:35:36.056Z,66.94
2022-09-26T14:38:09.755Z,66.85
2022-09-26T14:40:37.986Z,67.52
2022-09-26T14:43:17.257Z,67.11
2022-09-26T14:46:05.721Z,66.61
2022-09-26T14:48:39.999Z,65.74
2022-09-26T14:51:18.514Z,65.80
2022-09-26T14:53:48.801Z,64.61
2022-09-26T14:56:44.726Z,64.19
2022-09-26T14:59:24.856Z,63.94
2022-09-26T15:02:10.410Z,63.83
2022-09-26T15:04:39.253Z,64.01
2022-09-26T15:07:19.914Z,63.54
2022-09-26T15:10:05.032Z,63.68
2022-09-26T15:12:49.995Z,63.24
2022-09-26T15:16:00.454Z,62.58
2022-09-26T15:18:28.048Z,62.56
2022-09-26T15:21:10.204Z,61.55
2022-09-26T15:23:52.636Z,61.12
2022-09-26T15:26:26.329Z,58.91
2022-09-26T15:28:57.109Z,58.46
2022-09-26T15:31:38.519Z,57.86
2022-09-26T15:34:17.672Z,57.15
2022-09-26T15:36:57.714Z,55.61
2022-09-26T15:39:31.457Z,56.37
2022-09-26T15:42:39.728Z,56.17
2022-09-26T15:45:40.409Z,56.73
2022-09-26T15:48:20.281Z,56.26
2022-09-26T15:50:56.039Z,56.62
2022-09-26T15:53:36.246Z,56.02
2022-09-26T15:56:25.125Z,54.81
2022-09-26T15:59:13.049Z,53.97
2022-09-26T16:01:48.000Z,54.65
2022-09-26T16:04:49.409Z,54.46
2022-09-26T16:07:23.711Z,54.76
2022-09-26T16:09:52.418Z,55.27
2022-09-26T16:12:24.417Z,55.35
2022-09-26T16:15:05.750Z,55.33
2022-09-26T16:17:49.215Z,55.51
2022-09-26T16:20:16.981Z,55.50
2022-09-26T16:22:49.352Z,56.03
2022-09-26T16:25:32.311Z,56.72
2022-09-26T16:28:08.759Z,56.86
2022-09-26T16:30:41.689Z,57.16
2022-09-26T16:33:09.357Z,57.30
2022-09-26T16:35:45.004Z,57.55
2022-09-26T16:38:32.875Z,58.12
2022-09-26T16:41:48.904Z,57.60
2022-09-26T16:44:30.303Z,58.25
2022-09-26T16:47:04.657Z,58.01
2022-09-26T16:49:48.571Z,57.58
2022-09-26T16:52:28.428Z,57.10
2022-09-26T16:54:59.860Z,57.92
2022-09-26T16:57:38.274Z,58.64
2022-09-26T17:00:39.402Z,59.04
2022-09-26T17:03:31.095Z,59.01
2022-09-26T17:06:00.481Z,59.62
2022-09-26T17:08:28.720Z,59.17
2022-09-26T17:11:02.365Z,59.65
2022-09-26T17:13:35.200Z,60.15
2022-09-26T17:16:03.527Z,60.96
2022-09-26T17:18:33.363Z,60.88
2022-09-26T17:21:01.942Z,61.27
2022-09-26T17:23:41.055Z,61.79
2022-09-26T17:26:21.751Z,62.26
2022-09-26T17:28:53.309Z,62.58
2022-09-26T17:31:21.562Z,62.84
2022-09-26T17:33:53.046Z,62.95
2022-09-26T17:36:31.755Z,63.69
2022-09-26T17:39:00.947Z,63.41
2022-09-26T17:41:31.284Z,63.22
2022-09-26T17:44:01.120Z,63.31
2022-09-26T17:46:29.570Z,62.72
2022-09-26T17:48:59.255Z,62.12
2022-09-26T17:51:26.974Z,61.84
2022-09-26T17:53:57.368Z,61.98
2022-09-26T17:56:26.331Z,61.89
2022-09-26T17:58:54.315Z,61.91
2022-09-26T18:01:34.454Z,61.94
2022-09-26T18:04:09.236Z,61.91
2022-09-26T18:06:37.202Z,61.85
2022-09-26T18:09:09.826Z,61.64
2022-09-26T18:11:38.712Z,62.08
2022-09-26T18:14:07.976Z,62.26
2022-09-26T18:16:35.788Z,62.88
2022-09-26T18:19:07.529Z,63.26
2022-09-26T18:21:36.589Z,63.23
2022-09-26T18:24:06.829Z,63.61
2022-09-26T18:26:47.295Z,63.94
2022-09-26T18:29:26.306Z,64.21
2022-09-26T18:31:54.536Z,64.09
2022-09-26T18:34:22.333Z,64.39
2022-09-26T18:36:51.871Z,64.42
2022-09-26T18:39:19.671Z,64.38
2022-09-26T18:41:54.653Z,64.72
2022-09-26T18:44:23.891Z,64.83
2022-09-26T18:46:52.984Z,64.89
2022-09-26T18:49:21.113Z,65.14
2022-09-26T18:51:49.167Z,65.26
2022-09-26T18:54:17.799Z,65.51
2022-09-26T18:57:04.313Z,65.73
2022-09-26T18:59:32.208Z,65.84
2022-09-26T19:02:02.585Z,65.97
2022-09-26T19:04:31.583Z,66.27
2022-09-26T19:07:06.711Z,66.35
2022-09-26T19:09:36.221Z,66.22
2022-09-26T19:12:04.616Z,66.37
2022-09-26T19:14:32.594Z,66.43
2022-09-26T19:17:00.423Z,66.68
2022-09-26T19:19:30.171Z,66.81
2022-09-26T19:22:10.354Z,67.02
2022-09-26T19:24:51.609Z,67.30
2022-09-26T19:27:24.835Z,67.50
2022-09-26T19:30:21.274Z,67.66
2022-09-26T19:32:52.936Z,67.86
2022-09-26T19:35:27.050Z,68.03
2022-09-26T19:37:55.084Z,68.32
2022-09-26T19:40:25.109Z,68.52
2022-09-26T19:42:54.912Z,68.70
2022-09-26T19:45:24.178Z,68.85
2022-09-26T19:47:55.762Z,69.07
2022-09-26T19:50:26.267Z,69.09
2022-09-26T19:52:58.516Z,69.09
2022-09-26T19:55:30.565Z,69.23
2022-09-26T19:58:11.697Z,69.16
2022-09-26T20:00:43.488Z,69.34
2022-09-26T20:03:22.899Z,69.50
2022-09-26T20:05:51.199Z,69.66
2022-09-26T20:08:23.137Z,69.80
2022-09-26T20:11:01.240Z,69.94
2022-09-26T20:13:49.041Z,70.13
2022-09-26T20:16:16.975Z,70.18
2022-09-26T20:18:48.766Z,70.41
2022-09-26T20:21:21.645Z,70.64
2022-09-26T20:23:49.423Z,70.80
2022-09-26T20:26:18.817Z,70.83
2022-09-26T20:28:46.532Z,70.98
2022-09-26T20:31:29.075Z,71.17
2022-09-26T20:34:00.101Z,71.20
2022-09-26T20:36:32.754Z,71.24
2022-09-26T20:39:06.261Z,71.71
2022-09-26T20:41:40.692Z,71.75
2022-09-26T20:44:17.877Z,71.78
2022-09-26T20:46:52.378Z,72.46
2022-09-26T20:49:27.012Z,72.87
2022-09-26T20:51:57.322Z,73.40
2022-09-26T20:54:29.311Z,74.40
2022-09-26T20:56:58.769Z,74.82
2022-09-26T20:59:26.906Z,75.75
2022-09-26T21:01:56.979Z,76.04
2022-09-26T21:04:32.393Z,76.25
2022-09-26T21:07:00.054Z,76.53
2022-09-26T21:09:27.741Z,76.73
2022-09-26T21:11:55.508Z,77.02
2022-09-26T21:14:23.182Z,77.09
2022-09-26T21:16:52.408Z,77.04
2022-09-26T21:19:24.043Z,76.98
2022-09-26T21:21:58.659Z,77.44
2022-09-26T21:24:42.091Z,77.45
2022-09-26T21:27:11.530Z,77.76
2022-09-26T21:29:41.292Z,77.78
2022-09-26T21:32:16.965Z,77.75
2022-09-26T21:34:57.497Z,77.75
2022-09-26T21:37:25.434Z,77.73
2022-09-26T21:39:53.297Z,77.69
2022-09-26T21:42:21.688Z,77.65
2022-09-26T21:45:01.105Z,78.03
2022-09-26T21:47:29.292Z,78.07
2022-09-26T21:49:57.923Z,78.46
2022-09-26T21:52:44.650Z,78.28
2022-09-26T21:55:19.392Z,78.27
2022-09-26T21:57:50.294Z,78.37
2022-09-26T22:00:18.374Z,78.16
2022-09-26T22:02:46.231Z,78.48
2022-09-26T22:05:16.592Z,78.38
2022-09-26T22:07:44.248Z,78.28
2022-09-26T22:10:12.101Z,78.35
2022-09-26T22:12:40.458Z,78.44
2022-09-26T22:15:09.470Z,78.41
2022-09-26T22:17:37.163Z,78.37
2022-09-26T22:20:05.586Z,78.59
2022-09-26T22:22:33.728Z,78.40
2022-09-26T22:25:04.052Z,78.38
2022-09-26T22:27:34.366Z,78.28
2022-09-26T22:30:03.729Z,78.40
2022-09-26T22:32:31.749Z,78.22
2022-09-26T22:34:59.523Z,78.06
2022-09-26T22:37:27.984Z,77.91
2022-09-26T22:39:55.641Z,77.97
2022-09-26T22:42:23.409Z,77.90
2022-09-26T22:44:51.020Z,77.92
2022-09-26T22:47:19.196Z,77.85
2022-09-26T22:49:46.826Z,77.78
2022-09-26T22:52:14.533Z,77.78
2022-09-26T22:54:42.137Z,77.81
2022-09-26T22:57:09.909Z,77.92
2022-09-26T22:59:38.396Z,78.02
2022-09-26T23:02:06.150Z,77.85
2022-09-26T23:04:49.247Z,77.76
2022-09-26T23:07:19.797Z,77.72
2022-09-26T23:09:47.515Z,77.62
2022-09-26T23:12:15.297Z,77.52
2022-09-26T23:14:43.030Z,77.61
2022-09-26T23:17:11.211Z,77.66
2022-09-26T23:19:38.873Z,77.64
2022-09-26T23:22:06.746Z,77.54
2022-09-26T23:24:34.486Z,77.57
2022-09-26T23:27:02.216Z,77.57
2022-09-26T23:29:29.902Z,77.51
2022-09-26T23:31:57.838Z,77.46
2022-09-26T23:34:25.533Z,77.46
2022-09-26T23:36:53.206Z,77.44
2022-09-26T23:39:21.367Z,77.56
2022-09-26T23:41:48.991Z,77.60
2022-09-26T23:44:16.620Z,77.62
2022-09-26T23:46:44.491Z,77.67
2022-09-26T23:49:12.154Z,77.79
2022-09-26T23:51:39.886Z,77.77
2022-09-26T23:54:08.352Z,77.62
2022-09-26T23:56:36.206Z,77.66
2022-09-26T23:59:03.985Z,77.62
